Airfield :
LOGIN :

Register | Disclaimer

   EN    FR    IT 

 










Legend :    VFR   Marginal VFR   IFR   Intensive IFR   Very Intensive IFR
Visi :
Ceiling :
>= 8 km
>= 3000ft
5 to 8 km
1000 to 3000 ft
1500m to 5 km
500 to 1000 ft
800 to 1500m
200 to 500 ft
< 800m
< 200 ft
Symbols :   Thunderstorms  Fog  Heavy snow  Heavy precipitations  Wind > 20 kt
SIGMETs :     Misc.  Thunderstorms  Icing  Turbulence  Mountain Waves  Volcanic Ashes







- Airport Elevation : 1017 ft
- Download approach charts


LFSL - Brive Souillac

CURRENT METAR :
  • 300100Z AUTO 29006KT 9999 OVC041/// ///CB 18/16 Q1016

EXPIRED METARs :
  • 300030Z AUTO 00000KT 9999 BKN040/// BKN048/// OVC060/// ///CB 19/15 Q1016
  • 300000Z AUTO VRB02KT 9999 BKN044/// OVC058/// ///CB 19/15 Q1016
  • 292330Z AUTO VRB02KT 9999 BKN043/// OVC056/// ///TCU 19/15 Q1017
  • 292300Z AUTO 32003KT 9999 BKN044 OVC050 19/15 Q1017
  • 292230Z AUTO 29004KT 250V330 9999 SCT041 SCT050 OVC110 19/15 Q1017

Expired Forecast.
No reported NOTAMs for that airfield.
2 SIGMETs reported for the Bordeaux FIR (LFBB) :
 
Embedded thunderstorms
LFBB SIGMET 2 VALID 300030/300200 LFPW
LFBB BORDEAUX FIR/UIR EMBD TS OBS AT 0020Z WI N4330 W00115 - N4400 W00145 - N4445 W00100 - N4415 W00030 TOP FL390 MOV NE 20KT NC=
Embedded thunderstorms
LFBB SIGMET 1 VALID 300000/300200 LFPW
LFBB BORDEAUX FIR/UIR EMBD TS OBS AT 2350Z WI N4715 E00145 - N4715 E00200 - N4645 E00245 - N4330 E00230 - N4445 E00100 TOP FL390 MOV NE 25KT NC=



MET'MAP, your aeronautical weather chart ! - Copyright ORBIFLY December 2007 - Disclaimer

ORBIFLY MET'MAP TEAM :

Programming & Development : Alexandra Zaïnal
Concept & Development : Baudouin d'Aumeries
Co-Development & Prog : Marc-Olivier Méhu
Technical & hardware support : Manuel Goepfert

Contact : metmap@orbifly.com




SOURCES & CREDITS :

   NOAA